sensor_id;sensor_type;location;lat;lon;timestamp;P1;durP1;ratioP1;P2;durP2;ratioP2
35312;SDS011;21425;50.454;30.466;2023-02-01T00:01:53;14.25;;;4.63;;
35312;SDS011;21425;50.454;30.466;2023-02-01T00:04:19;14.75;;;4.10;;
35312;SDS011;21425;50.454;30.466;2023-02-01T00:06:44;16.70;;;5.75;;
35312;SDS011;21425;50.454;30.466;2023-02-01T00:09:10;15.68;;;4.93;;
35312;SDS011;21425;50.454;30.466;2023-02-01T00:11:36;15.02;;;5.25;;
35312;SDS011;21425;50.454;30.466;2023-02-01T00:14:01;8.98;;;3.95;;
35312;SDS011;21425;50.454;30.466;2023-02-01T00:16:28;18.38;;;4.85;;
35312;SDS011;21425;50.454;30.466;2023-02-01T00:19:01;19.63;;;5.72;;
35312;SDS011;21425;50.454;30.466;2023-02-01T00:21:32;10.10;;;3.75;;
35312;SDS011;21425;50.454;30.466;2023-02-01T00:23:58;11.77;;;4.57;;
35312;SDS011;21425;50.454;30.466;2023-02-01T00:26:31;15.70;;;5.30;;
35312;SDS011;21425;50.454;30.466;2023-02-01T00:28:57;22.05;;;6.63;;
35312;SDS011;21425;50.454;30.466;2023-02-01T00:31:23;27.00;;;6.65;;
35312;SDS011;21425;50.454;30.466;2023-02-01T00:33:49;25.55;;;7.18;;
35312;SDS011;21425;50.454;30.466;2023-02-01T00:36:15;24.95;;;6.70;;
35312;SDS011;21425;50.454;30.466;2023-02-01T00:38:41;20.70;;;7.25;;
35312;SDS011;21425;50.454;30.466;2023-02-01T00:41:09;22.35;;;8.27;;
35312;SDS011;21425;50.454;30.466;2023-02-01T00:43:37;18.48;;;5.85;;
35312;SDS011;21425;50.454;30.466;2023-02-01T00:46:03;22.35;;;8.57;;
35312;SDS011;21425;50.454;30.466;2023-02-01T00:48:29;25.58;;;8.55;;
35312;SDS011;21425;50.454;30.466;2023-02-01T00:50:58;31.25;;;12.48;;
35312;SDS011;21425;50.454;30.466;2023-02-01T00:53:25;35.35;;;12.15;;
35312;SDS011;21425;50.454;30.466;2023-02-01T00:55:51;34.95;;;12.57;;
35312;SDS011;21425;50.454;30.466;2023-02-01T00:58:16;32.55;;;11.70;;
35312;SDS011;21425;50.454;30.466;2023-02-01T01:00:42;41.42;;;11.05;;
35312;SDS011;21425;50.454;30.466;2023-02-01T01:03:07;39.38;;;11.32;;
35312;SDS011;21425;50.454;30.466;2023-02-01T01:05:49;24.90;;;9.52;;
35312;SDS011;21425;50.454;30.466;2023-02-01T01:08:15;22.33;;;8.65;;
35312;SDS011;21425;50.454;30.466;2023-02-01T01:10:41;26.83;;;9.63;;
35312;SDS011;21425;50.454;30.466;2023-02-01T01:13:08;24.27;;;10.27;;
35312;SDS011;21425;50.454;30.466;2023-02-01T01:15:37;31.10;;;10.85;;
35312;SDS011;21425;50.454;30.466;2023-02-01T01:18:04;32.92;;;11.45;;
35312;SDS011;21425;50.454;30.466;2023-02-01T01:20:30;26.13;;;10.23;;
35312;SDS011;21425;50.454;30.466;2023-02-01T01:22:56;33.13;;;10.88;;
35312;SDS011;21425;50.454;30.466;2023-02-01T01:25:22;25.45;;;9.88;;
35312;SDS011;21425;50.454;30.466;2023-02-01T01:27:47;26.25;;;10.45;;
35312;SDS011;21425;50.454;30.466;2023-02-01T01:30:13;19.42;;;7.85;;
35312;SDS011;21425;50.454;30.466;2023-02-01T01:32:39;29.08;;;12.77;;
35312;SDS011;21425;50.454;30.466;2023-02-01T01:35:04;35.15;;;11.70;;
35312;SDS011;21425;50.454;30.466;2023-02-01T01:37:31;24.40;;;8.05;;
35312;SDS011;21425;50.454;30.466;2023-02-01T01:39:57;24.83;;;9.27;;
35312;SDS011;21425;50.454;30.466;2023-02-01T01:42:22;19.00;;;8.55;;
35312;SDS011;21425;50.454;30.466;2023-02-01T01:47:44;15.52;;;6.38;;
35312;SDS011;21425;50.454;30.466;2023-02-01T01:50:16;15.35;;;7.00;;
35312;SDS011;21425;50.454;30.466;2023-02-01T01:52:45;13.27;;;6.50;;
35312;SDS011;21425;50.454;30.466;2023-02-01T01:55:14;24.98;;;8.07;;
35312;SDS011;21425;50.454;30.466;2023-02-01T01:57:42;15.80;;;7.35;;
35312;SDS011;21425;50.454;30.466;2023-02-01T02:00:12;21.63;;;7.07;;
35312;SDS011;21425;50.454;30.466;2023-02-01T02:02:40;14.18;;;5.82;;
35312;SDS011;21425;50.454;30.466;2023-02-01T02:05:08;16.95;;;7.25;;
35312;SDS011;21425;50.454;30.466;2023-02-01T02:07:35;16.58;;;6.25;;
35312;SDS011;21425;50.454;30.466;2023-02-01T02:10:05;19.58;;;7.43;;
35312;SDS011;21425;50.454;30.466;2023-02-01T02:12:35;13.63;;;5.68;;
35312;SDS011;21425;50.454;30.466;2023-02-01T02:15:05;18.10;;;6.13;;
35312;SDS011;21425;50.454;30.466;2023-02-01T02:17:44;17.42;;;6.30;;
35312;SDS011;21425;50.454;30.466;2023-02-01T02:20:52;15.05;;;5.68;;
35312;SDS011;21425;50.454;30.466;2023-02-01T02:23:55;13.32;;;6.15;;
35312;SDS011;21425;50.454;30.466;2023-02-01T02:26:50;5.55;;;3.13;;
35312;SDS011;21425;50.454;30.466;2023-02-01T02:42:42;19.60;;;7.72;;
35312;SDS011;21425;50.454;30.466;2023-02-01T02:45:35;21.70;;;6.53;;
35312;SDS011;21425;50.454;30.466;2023-02-01T02:48:27;15.77;;;5.88;;
35312;SDS011;21425;50.454;30.466;2023-02-01T02:50:59;16.48;;;7.55;;
35312;SDS011;21425;50.454;30.466;2023-02-01T02:53:58;15.52;;;5.72;;
35312;SDS011;21425;50.454;30.466;2023-02-01T02:56:43;18.85;;;7.65;;
35312;SDS011;21425;50.454;30.466;2023-02-01T02:59:28;20.80;;;8.43;;
35312;SDS011;21425;50.454;30.466;2023-02-01T03:02:14;19.05;;;8.68;;
35312;SDS011;21425;50.454;30.466;2023-02-01T03:05:00;24.70;;;8.25;;
35312;SDS011;21425;50.454;30.466;2023-02-01T03:07:45;18.58;;;7.88;;
35312;SDS011;21425;50.454;30.466;2023-02-01T03:10:26;20.13;;;8.07;;
35312;SDS011;21425;50.454;30.466;2023-02-01T03:13:09;21.00;;;7.68;;
35312;SDS011;21425;50.454;30.466;2023-02-01T03:15:40;20.27;;;8.50;;
35312;SDS011;21425;50.454;30.466;2023-02-01T03:18:16;25.65;;;8.02;;
35312;SDS011;21425;50.454;30.466;2023-02-01T03:20:50;23.45;;;7.85;;
35312;SDS011;21425;50.454;30.466;2023-02-01T03:23:19;25.10;;;8.60;;
35312;SDS011;21425;50.454;30.466;2023-02-01T03:25:48;29.50;;;10.23;;
35312;SDS011;21425;50.454;30.466;2023-02-01T03:28:16;25.77;;;8.85;;
35312;SDS011;21425;50.454;30.466;2023-02-01T03:30:46;20.08;;;8.65;;
35312;SDS011;21425;50.454;30.466;2023-02-01T03:33:14;28.52;;;11.02;;
35312;SDS011;21425;50.454;30.466;2023-02-01T03:35:52;20.63;;;8.73;;
35312;SDS011;21425;50.454;30.466;2023-02-01T03:38:46;26.17;;;11.40;;
35312;SDS011;21425;50.454;30.466;2023-02-01T03:41:41;27.42;;;9.48;;
35312;SDS011;21425;50.454;30.466;2023-02-01T03:46:45;29.05;;;11.45;;
35312;SDS011;21425;50.454;30.466;2023-02-01T03:49:25;34.83;;;12.90;;
35312;SDS011;21425;50.454;30.466;2023-02-01T03:52:20;27.80;;;9.07;;
35312;SDS011;21425;50.454;30.466;2023-02-01T03:55:03;24.05;;;10.40;;
35312;SDS011;21425;50.454;30.466;2023-02-01T03:57:32;32.20;;;11.30;;
35312;SDS011;21425;50.454;30.466;2023-02-01T04:00:06;33.42;;;11.23;;
35312;SDS011;21425;50.454;30.466;2023-02-01T04:02:34;29.13;;;10.85;;
35312;SDS011;21425;50.454;30.466;2023-02-01T04:05:00;31.15;;;11.07;;
35312;SDS011;21425;50.454;30.466;2023-02-01T04:07:26;30.85;;;11.75;;
35312;SDS011;21425;50.454;30.466;2023-02-01T04:09:51;24.75;;;8.88;;
35312;SDS011;21425;50.454;30.466;2023-02-01T04:12:17;39.30;;;12.80;;
35312;SDS011;21425;50.454;30.466;2023-02-01T04:14:42;29.48;;;11.85;;
35312;SDS011;21425;50.454;30.466;2023-02-01T04:17:08;25.63;;;11.00;;
35312;SDS011;21425;50.454;30.466;2023-02-01T04:19:33;23.48;;;9.23;;
35312;SDS011;21425;50.454;30.466;2023-02-01T04:21:59;27.58;;;9.50;;
35312;SDS011;21425;50.454;30.466;2023-02-01T04:24:24;28.10;;;11.48;;
35312;SDS011;21425;50.454;30.466;2023-02-01T04:26:50;25.10;;;9.13;;
35312;SDS011;21425;50.454;30.466;2023-02-01T04:29:15;25.95;;;9.02;;
35312;SDS011;21425;50.454;30.466;2023-02-01T04:31:41;23.85;;;9.60;;
35312;SDS011;21425;50.454;30.466;2023-02-01T04:34:06;26.00;;;8.60;;
35312;SDS011;21425;50.454;30.466;2023-02-01T04:36:32;31.13;;;10.90;;
35312;SDS011;21425;50.454;30.466;2023-02-01T04:38:58;30.27;;;11.48;;
35312;SDS011;21425;50.454;30.466;2023-02-01T04:41:23;24.08;;;9.70;;
35312;SDS011;21425;50.454;30.466;2023-02-01T04:43:49;30.33;;;9.63;;
35312;SDS011;21425;50.454;30.466;2023-02-01T04:46:16;31.30;;;9.68;;
35312;SDS011;21425;50.454;30.466;2023-02-01T04:48:42;23.58;;;9.43;;
35312;SDS011;21425;50.454;30.466;2023-02-01T04:51:08;22.25;;;9.77;;
35312;SDS011;21425;50.454;30.466;2023-02-01T04:53:35;24.02;;;9.20;;
35312;SDS011;21425;50.454;30.466;2023-02-01T04:56:00;20.65;;;7.65;;
35312;SDS011;21425;50.454;30.466;2023-02-01T04:58:26;25.73;;;9.32;;
35312;SDS011;21425;50.454;30.466;2023-02-01T05:00:51;26.88;;;6.95;;
35312;SDS011;21425;50.454;30.466;2023-02-01T05:03:18;20.85;;;8.13;;
35312;SDS011;21425;50.454;30.466;2023-02-01T05:05:44;17.40;;;6.43;;
35312;SDS011;21425;50.454;30.466;2023-02-01T05:08:11;18.98;;;8.10;;
35312;SDS011;21425;50.454;30.466;2023-02-01T05:10:37;24.75;;;9.57;;
35312;SDS011;21425;50.454;30.466;2023-02-01T05:13:03;19.50;;;7.15;;
35312;SDS011;21425;50.454;30.466;2023-02-01T05:15:47;34.92;;;8.93;;
35312;SDS011;21425;50.454;30.466;2023-02-01T05:18:12;22.58;;;8.98;;
35312;SDS011;21425;50.454;30.466;2023-02-01T05:20:38;13.43;;;5.50;;
35312;SDS011;21425;50.454;30.466;2023-02-01T05:23:04;24.70;;;9.15;;
35312;SDS011;21425;50.454;30.466;2023-02-01T05:25:30;18.60;;;6.65;;
35312;SDS011;21425;50.454;30.466;2023-02-01T05:27:56;21.92;;;8.23;;
35312;SDS011;21425;50.454;30.466;2023-02-01T05:30:21;21.15;;;8.40;;
35312;SDS011;21425;50.454;30.466;2023-02-01T05:32:50;29.50;;;11.15;;
35312;SDS011;21425;50.454;30.466;2023-02-01T05:35:17;22.02;;;9.32;;
35312;SDS011;21425;50.454;30.466;2023-02-01T05:37:42;34.15;;;10.25;;
35312;SDS011;21425;50.454;30.466;2023-02-01T05:40:08;30.38;;;9.32;;
35312;SDS011;21425;50.454;30.466;2023-02-01T05:42:34;19.52;;;8.13;;
35312;SDS011;21425;50.454;30.466;2023-02-01T05:45:00;40.92;;;12.00;;
35312;SDS011;21425;50.454;30.466;2023-02-01T05:47:25;29.73;;;10.15;;
35312;SDS011;21425;50.454;30.466;2023-02-01T05:49:51;35.78;;;10.45;;
35312;SDS011;21425;50.454;30.466;2023-02-01T05:52:17;31.33;;;10.55;;
35312;SDS011;21425;50.454;30.466;2023-02-01T05:54:44;35.22;;;11.57;;
35312;SDS011;21425;50.454;30.466;2023-02-01T05:57:11;26.15;;;10.65;;
35312;SDS011;21425;50.454;30.466;2023-02-01T05:59:38;28.27;;;11.73;;
35312;SDS011;21425;50.454;30.466;2023-02-01T06:02:06;28.92;;;10.95;;
35312;SDS011;21425;50.454;30.466;2023-02-01T06:04:32;32.72;;;9.93;;
35312;SDS011;21425;50.454;30.466;2023-02-01T06:06:58;27.17;;;10.00;;
35312;SDS011;21425;50.454;30.466;2023-02-01T06:09:23;25.52;;;10.30;;
35312;SDS011;21425;50.454;30.466;2023-02-01T06:11:49;35.50;;;9.88;;
35312;SDS011;21425;50.454;30.466;2023-02-01T06:14:14;25.35;;;10.90;;
35312;SDS011;21425;50.454;30.466;2023-02-01T06:16:40;34.47;;;11.65;;
35312;SDS011;21425;50.454;30.466;2023-02-01T06:19:06;26.73;;;11.80;;
35312;SDS011;21425;50.454;30.466;2023-02-01T07:19:16;34.58;;;14.27;;
35312;SDS011;21425;50.454;30.466;2023-02-01T07:21:42;22.38;;;8.85;;
35312;SDS011;21425;50.454;30.466;2023-02-01T07:24:08;32.35;;;12.02;;
35312;SDS011;21425;50.454;30.466;2023-02-01T07:26:33;30.85;;;11.60;;
35312;SDS011;21425;50.454;30.466;2023-02-01T07:28:59;29.15;;;12.20;;
35312;SDS011;21425;50.454;30.466;2023-02-01T07:31:24;55.78;;;17.45;;
35312;SDS011;21425;50.454;30.466;2023-02-01T07:33:51;35.92;;;14.23;;
35312;SDS011;21425;50.454;30.466;2023-02-01T07:36:17;38.28;;;14.27;;
35312;SDS011;21425;50.454;30.466;2023-02-01T07:38:43;42.35;;;12.98;;
35312;SDS011;21425;50.454;30.466;2023-02-01T07:41:09;35.05;;;13.38;;
35312;SDS011;21425;50.454;30.466;2023-02-01T07:43:35;30.83;;;11.90;;
35312;SDS011;21425;50.454;30.466;2023-02-01T07:46:01;33.40;;;12.48;;
35312;SDS011;21425;50.454;30.466;2023-02-01T07:48:28;30.15;;;13.48;;
35312;SDS011;21425;50.454;30.466;2023-02-01T07:51:02;29.75;;;11.68;;
35312;SDS011;21425;50.454;30.466;2023-02-01T07:53:30;34.35;;;13.15;;
35312;SDS011;21425;50.454;30.466;2023-02-01T07:55:58;37.72;;;13.82;;
35312;SDS011;21425;50.454;30.466;2023-02-01T07:58:24;35.10;;;11.68;;
35312;SDS011;21425;50.454;30.466;2023-02-01T08:00:50;28.83;;;10.93;;
35312;SDS011;21425;50.454;30.466;2023-02-01T08:06:00;29.67;;;11.13;;
35312;SDS011;21425;50.454;30.466;2023-02-01T08:08:26;34.90;;;15.18;;
35312;SDS011;21425;50.454;30.466;2023-02-01T08:10:56;40.45;;;13.00;;
35312;SDS011;21425;50.454;30.466;2023-02-01T08:13:22;39.67;;;14.45;;
35312;SDS011;21425;50.454;30.466;2023-02-01T08:15:48;32.45;;;12.70;;
35312;SDS011;21425;50.454;30.466;2023-02-01T08:18:14;37.15;;;13.45;;
35312;SDS011;21425;50.454;30.466;2023-02-01T08:20:41;31.52;;;12.45;;
35312;SDS011;21425;50.454;30.466;2023-02-01T08:23:08;29.13;;;10.15;;
35312;SDS011;21425;50.454;30.466;2023-02-01T08:25:34;28.58;;;10.90;;
35312;SDS011;21425;50.454;30.466;2023-02-01T08:28:01;28.38;;;10.45;;
35312;SDS011;21425;50.454;30.466;2023-02-01T08:30:27;29.98;;;9.30;;
35312;SDS011;21425;50.454;30.466;2023-02-01T08:32:53;29.70;;;10.23;;
35312;SDS011;21425;50.454;30.466;2023-02-01T08:35:18;21.73;;;8.65;;
35312;SDS011;21425;50.454;30.466;2023-02-01T08:37:44;21.70;;;10.38;;
35312;SDS011;21425;50.454;30.466;2023-02-01T08:40:10;23.02;;;10.20;;
35312;SDS011;21425;50.454;30.466;2023-02-01T08:42:35;28.25;;;10.73;;
35312;SDS011;21425;50.454;30.466;2023-02-01T08:45:26;21.83;;;9.75;;
35312;SDS011;21425;50.454;30.466;2023-02-01T08:47:54;28.15;;;10.18;;
35312;SDS011;21425;50.454;30.466;2023-02-01T08:50:21;27.15;;;9.82;;
35312;SDS011;21425;50.454;30.466;2023-02-01T08:52:47;20.17;;;8.93;;
35312;SDS011;21425;50.454;30.466;2023-02-01T08:55:13;20.20;;;8.18;;
35312;SDS011;21425;50.454;30.466;2023-02-01T08:57:39;22.70;;;8.45;;
35312;SDS011;21425;50.454;30.466;2023-02-01T09:00:05;17.10;;;7.15;;
35312;SDS011;21425;50.454;30.466;2023-02-01T09:02:33;24.33;;;8.43;;
35312;SDS011;21425;50.454;30.466;2023-02-01T09:04:59;18.85;;;8.23;;
35312;SDS011;21425;50.454;30.466;2023-02-01T09:07:25;22.52;;;9.13;;
35312;SDS011;21425;50.454;30.466;2023-02-01T09:09:50;21.00;;;8.27;;
35312;SDS011;21425;50.454;30.466;2023-02-01T09:12:16;26.25;;;8.25;;
35312;SDS011;21425;50.454;30.466;2023-02-01T09:14:41;20.83;;;8.52;;
35312;SDS011;21425;50.454;30.466;2023-02-01T09:17:07;28.48;;;8.35;;
35312;SDS011;21425;50.454;30.466;2023-02-01T09:19:33;26.77;;;7.97;;
35312;SDS011;21425;50.454;30.466;2023-02-01T09:21:58;21.13;;;7.57;;
35312;SDS011;21425;50.454;30.466;2023-02-01T09:24:24;21.13;;;8.52;;
35312;SDS011;21425;50.454;30.466;2023-02-01T09:26:50;20.83;;;8.02;;
35312;SDS011;21425;50.454;30.466;2023-02-01T09:29:16;17.17;;;6.22;;
35312;SDS011;21425;50.454;30.466;2023-02-01T09:31:42;26.20;;;8.65;;
35312;SDS011;21425;50.454;30.466;2023-02-01T09:34:07;18.33;;;6.28;;
35312;SDS011;21425;50.454;30.466;2023-02-01T09:36:33;20.10;;;6.25;;
35312;SDS011;21425;50.454;30.466;2023-02-01T09:38:59;16.95;;;6.57;;
35312;SDS011;21425;50.454;30.466;2023-02-01T09:41:30;17.10;;;7.25;;
35312;SDS011;21425;50.454;30.466;2023-02-01T09:47:04;15.02;;;5.30;;
35312;SDS011;21425;50.454;30.466;2023-02-01T09:49:55;15.55;;;5.88;;
35312;SDS011;21425;50.454;30.466;2023-02-01T09:52:32;14.80;;;5.82;;
35312;SDS011;21425;50.454;30.466;2023-02-01T09:55:04;17.02;;;6.00;;
35312;SDS011;21425;50.454;30.466;2023-02-01T09:57:44;16.88;;;6.82;;
35312;SDS011;21425;50.454;30.466;2023-02-01T10:00:23;15.98;;;7.05;;
35312;SDS011;21425;50.454;30.466;2023-02-01T10:02:53;16.95;;;6.55;;
35312;SDS011;21425;50.454;30.466;2023-02-01T10:05:24;14.77;;;6.38;;
35312;SDS011;21425;50.454;30.466;2023-02-01T10:08:33;16.23;;;6.47;;
35312;SDS011;21425;50.454;30.466;2023-02-01T10:11:28;25.25;;;8.68;;
35312;SDS011;21425;50.454;30.466;2023-02-01T10:22:45;21.08;;;8.48;;
35312;SDS011;21425;50.454;30.466;2023-02-01T10:25:26;16.05;;;6.85;;
35312;SDS011;21425;50.454;30.466;2023-02-01T10:27:53;25.98;;;7.90;;
35312;SDS011;21425;50.454;30.466;2023-02-01T10:30:21;23.02;;;7.53;;
35312;SDS011;21425;50.454;30.466;2023-02-01T10:33:00;19.63;;;6.68;;
35312;SDS011;21425;50.454;30.466;2023-02-01T10:35:42;22.02;;;6.35;;
35312;SDS011;21425;50.454;30.466;2023-02-01T10:38:19;17.40;;;7.13;;
35312;SDS011;21425;50.454;30.466;2023-02-01T10:40:51;17.98;;;7.43;;
35312;SDS011;21425;50.454;30.466;2023-02-01T10:43:20;24.98;;;8.25;;
35312;SDS011;21425;50.454;30.466;2023-02-01T10:45:46;18.60;;;7.50;;
35312;SDS011;21425;50.454;30.466;2023-02-01T10:48:12;27.70;;;9.20;;
35312;SDS011;21425;50.454;30.466;2023-02-01T10:50:46;34.20;;;9.50;;
35312;SDS011;21425;50.454;30.466;2023-02-01T10:53:18;23.17;;;7.55;;
35312;SDS011;21425;50.454;30.466;2023-02-01T10:56:11;20.45;;;8.23;;
35312;SDS011;21425;50.454;30.466;2023-02-01T10:58:45;18.38;;;8.63;;
35312;SDS011;21425;50.454;30.466;2023-02-01T11:01:20;22.73;;;6.70;;
35312;SDS011;21425;50.454;30.466;2023-02-01T11:03:58;21.15;;;6.75;;
35312;SDS011;21425;50.454;30.466;2023-02-01T11:06:27;24.55;;;8.23;;
35312;SDS011;21425;50.454;30.466;2023-02-01T11:08:54;19.63;;;8.57;;
35312;SDS011;21425;50.454;30.466;2023-02-01T11:11:26;22.58;;;9.63;;
35312;SDS011;21425;50.454;30.466;2023-02-01T11:14:00;20.17;;;9.48;;
35312;SDS011;21425;50.454;30.466;2023-02-01T11:16:36;19.77;;;8.90;;
35312;SDS011;21425;50.454;30.466;2023-02-01T11:19:03;26.17;;;8.93;;
35312;SDS011;21425;50.454;30.466;2023-02-01T11:21:30;21.83;;;9.35;;
35312;SDS011;21425;50.454;30.466;2023-02-01T11:24:00;31.40;;;11.25;;
35312;SDS011;21425;50.454;30.466;2023-02-01T11:26:28;23.23;;;9.60;;
35312;SDS011;21425;50.454;30.466;2023-02-01T11:28:57;26.05;;;9.85;;
35312;SDS011;21425;50.454;30.466;2023-02-01T11:31:28;22.58;;;9.63;;
35312;SDS011;21425;50.454;30.466;2023-02-01T11:33:57;23.70;;;8.90;;
35312;SDS011;21425;50.454;30.466;2023-02-01T11:36:30;21.08;;;9.52;;
35312;SDS011;21425;50.454;30.466;2023-02-01T11:44:41;25.98;;;10.27;;
35312;SDS011;21425;50.454;30.466;2023-02-01T11:47:18;17.65;;;8.77;;
35312;SDS011;21425;50.454;30.466;2023-02-01T11:49:56;23.77;;;9.77;;
35312;SDS011;21425;50.454;30.466;2023-02-01T11:55:45;21.15;;;9.40;;
35312;SDS011;21425;50.454;30.466;2023-02-01T12:07:10;20.17;;;9.48;;
35312;SDS011;21425;50.454;30.466;2023-02-01T12:18:35;26.63;;;8.88;;
35312;SDS011;21425;50.454;30.466;2023-02-01T12:30:07;21.30;;;8.55;;
35312;SDS011;21425;50.454;30.466;2023-02-01T12:35:41;23.63;;;8.43;;
35312;SDS011;21425;50.454;30.466;2023-02-01T12:44:05;23.73;;;9.77;;
35312;SDS011;21425;50.454;30.466;2023-02-01T12:51:55;31.88;;;12.13;;
35312;SDS011;21425;50.454;30.466;2023-02-01T12:54:34;27.90;;;10.65;;
35312;SDS011;21425;50.454;30.466;2023-02-01T12:57:04;33.33;;;12.30;;
35312;SDS011;21425;50.454;30.466;2023-02-01T12:59:42;31.30;;;11.18;;
35312;SDS011;21425;50.454;30.466;2023-02-01T13:05:19;25.95;;;11.35;;
35312;SDS011;21425;50.454;30.466;2023-02-01T16:21:56;25.58;;;12.32;;
35312;SDS011;21425;50.454;30.466;2023-02-01T16:24:23;23.55;;;12.07;;
35312;SDS011;21425;50.454;30.466;2023-02-01T16:26:50;20.10;;;9.63;;
35312;SDS011;21425;50.454;30.466;2023-02-01T16:29:16;29.85;;;10.30;;
35312;SDS011;21425;50.454;30.466;2023-02-01T16:31:41;27.05;;;12.88;;
35312;SDS011;21425;50.454;30.466;2023-02-01T16:34:14;23.08;;;9.00;;
35312;SDS011;21425;50.454;30.466;2023-02-01T16:36:46;28.55;;;10.80;;
35312;SDS011;21425;50.454;30.466;2023-02-01T16:39:16;28.27;;;11.80;;
35312;SDS011;21425;50.454;30.466;2023-02-01T16:41:42;26.55;;;12.60;;
35312;SDS011;21425;50.454;30.466;2023-02-01T16:44:08;27.42;;;12.30;;
35312;SDS011;21425;50.454;30.466;2023-02-01T16:46:35;25.88;;;12.40;;
35312;SDS011;21425;50.454;30.466;2023-02-01T16:49:05;25.25;;;13.05;;
35312;SDS011;21425;50.454;30.466;2023-02-01T16:51:31;33.95;;;14.05;;
35312;SDS011;21425;50.454;30.466;2023-02-01T16:53:58;31.77;;;13.60;;
35312;SDS011;21425;50.454;30.466;2023-02-01T16:56:27;29.60;;;13.25;;
35312;SDS011;21425;50.454;30.466;2023-02-01T16:58:55;23.75;;;11.23;;
35312;SDS011;21425;50.454;30.466;2023-02-01T17:01:21;34.67;;;12.40;;
35312;SDS011;21425;50.454;30.466;2023-02-01T17:03:48;30.42;;;13.05;;
35312;SDS011;21425;50.454;30.466;2023-02-01T17:06:15;23.67;;;10.50;;
35312;SDS011;21425;50.454;30.466;2023-02-01T17:08:44;26.17;;;9.90;;
35312;SDS011;21425;50.454;30.466;2023-02-01T17:11:12;34.67;;;14.60;;
35312;SDS011;21425;50.454;30.466;2023-02-01T17:13:38;34.70;;;13.70;;
35312;SDS011;21425;50.454;30.466;2023-02-01T17:16:11;27.95;;;11.50;;
35312;SDS011;21425;50.454;30.466;2023-02-01T17:18:46;34.13;;;13.25;;
35312;SDS011;21425;50.454;30.466;2023-02-01T17:23:45;30.13;;;10.85;;
35312;SDS011;21425;50.454;30.466;2023-02-01T17:26:11;31.10;;;13.73;;
35312;SDS011;21425;50.454;30.466;2023-02-01T17:28:36;30.77;;;13.75;;
35312;SDS011;21425;50.454;30.466;2023-02-01T17:31:02;33.35;;;13.18;;
35312;SDS011;21425;50.454;30.466;2023-02-01T17:33:33;38.03;;;14.00;;
35312;SDS011;21425;50.454;30.466;2023-02-01T17:35:59;28.52;;;11.45;;
35312;SDS011;21425;50.454;30.466;2023-02-01T17:38:25;28.30;;;10.85;;
35312;SDS011;21425;50.454;30.466;2023-02-01T17:40:51;36.13;;;13.25;;
35312;SDS011;21425;50.454;30.466;2023-02-01T17:43:24;28.10;;;11.77;;
35312;SDS011;21425;50.454;30.466;2023-02-01T17:46:00;31.70;;;13.75;;
35312;SDS011;21425;50.454;30.466;2023-02-01T17:48:29;32.38;;;12.40;;
35312;SDS011;21425;50.454;30.466;2023-02-01T17:50:55;30.92;;;12.98;;
35312;SDS011;21425;50.454;30.466;2023-02-01T17:53:27;28.75;;;10.32;;
35312;SDS011;21425;50.454;30.466;2023-02-01T17:55:53;30.73;;;13.07;;
35312;SDS011;21425;50.454;30.466;2023-02-01T17:58:22;17.88;;;8.95;;
35312;SDS011;21425;50.454;30.466;2023-02-01T18:00:48;20.65;;;10.80;;
35312;SDS011;21425;50.454;30.466;2023-02-01T18:03:20;24.45;;;9.27;;
35312;SDS011;21425;50.454;30.466;2023-02-01T18:05:50;30.00;;;10.68;;
35312;SDS011;21425;50.454;30.466;2023-02-01T18:08:18;26.10;;;10.02;;
35312;SDS011;21425;50.454;30.466;2023-02-01T18:10:49;29.25;;;11.57;;
35312;SDS011;21425;50.454;30.466;2023-02-01T18:13:18;27.35;;;12.38;;
35312;SDS011;21425;50.454;30.466;2023-02-01T18:15:44;18.17;;;7.72;;
35312;SDS011;21425;50.454;30.466;2023-02-01T18:18:09;22.60;;;9.20;;
35312;SDS011;21425;50.454;30.466;2023-02-01T18:20:35;29.80;;;10.38;;
35312;SDS011;21425;50.454;30.466;2023-02-01T18:23:01;25.25;;;8.68;;
35312;SDS011;21425;50.454;30.466;2023-02-01T18:25:27;26.88;;;10.02;;
35312;SDS011;21425;50.454;30.466;2023-02-01T18:27:54;16.83;;;7.72;;
35312;SDS011;21425;50.454;30.466;2023-02-01T18:30:22;21.52;;;8.32;;
35312;SDS011;21425;50.454;30.466;2023-02-01T18:32:49;29.65;;;10.98;;
35312;SDS011;21425;50.454;30.466;2023-02-01T18:37:48;28.25;;;11.77;;
35312;SDS011;21425;50.454;30.466;2023-02-01T18:40:18;26.75;;;10.88;;
35312;SDS011;21425;50.454;30.466;2023-02-01T18:42:56;25.95;;;11.50;;
35312;SDS011;21425;50.454;30.466;2023-02-01T18:47:54;25.65;;;11.23;;
35312;SDS011;21425;50.454;30.466;2023-02-01T18:50:21;25.63;;;10.30;;
35312;SDS011;21425;50.454;30.466;2023-02-01T18:52:47;25.10;;;11.70;;
35312;SDS011;21425;50.454;30.466;2023-02-01T18:55:16;28.55;;;10.98;;
35312;SDS011;21425;50.454;30.466;2023-02-01T18:57:41;28.67;;;13.80;;
35312;SDS011;21425;50.454;30.466;2023-02-01T19:00:07;29.58;;;13.20;;
35312;SDS011;21425;50.454;30.466;2023-02-01T19:02:35;29.17;;;12.80;;
35312;SDS011;21425;50.454;30.466;2023-02-01T19:05:02;24.75;;;9.10;;
35312;SDS011;21425;50.454;30.466;2023-02-01T19:07:30;31.05;;;12.18;;
35312;SDS011;21425;50.454;30.466;2023-02-01T19:09:56;29.38;;;13.82;;
35312;SDS011;21425;50.454;30.466;2023-02-01T19:12:22;20.45;;;10.70;;
35312;SDS011;21425;50.454;30.466;2023-02-01T19:14:47;27.98;;;13.13;;
35312;SDS011;21425;50.454;30.466;2023-02-01T19:17:13;25.58;;;11.85;;
35312;SDS011;21425;50.454;30.466;2023-02-01T19:19:39;27.92;;;12.55;;
35312;SDS011;21425;50.454;30.466;2023-02-01T19:22:05;24.52;;;10.35;;
35312;SDS011;21425;50.454;30.466;2023-02-01T19:24:31;26.25;;;11.63;;
35312;SDS011;21425;50.454;30.466;2023-02-01T19:26:57;20.27;;;7.90;;
35312;SDS011;21425;50.454;30.466;2023-02-01T19:29:22;33.17;;;14.07;;
35312;SDS011;21425;50.454;30.466;2023-02-01T19:31:48;19.60;;;9.07;;
35312;SDS011;21425;50.454;30.466;2023-02-01T19:34:14;27.67;;;11.15;;
35312;SDS011;21425;50.454;30.466;2023-02-01T19:36:39;28.98;;;10.80;;
35312;SDS011;21425;50.454;30.466;2023-02-01T19:39:07;22.67;;;8.45;;
35312;SDS011;21425;50.454;30.466;2023-02-01T19:41:33;22.48;;;10.57;;
35312;SDS011;21425;50.454;30.466;2023-02-01T19:43:59;21.73;;;10.38;;
35312;SDS011;21425;50.454;30.466;2023-02-01T19:46:25;26.35;;;11.75;;
35312;SDS011;21425;50.454;30.466;2023-02-01T19:48:51;24.85;;;9.80;;
35312;SDS011;21425;50.454;30.466;2023-02-01T19:51:16;22.70;;;9.90;;
35312;SDS011;21425;50.454;30.466;2023-02-01T19:53:43;16.98;;;9.45;;
35312;SDS011;21425;50.454;30.466;2023-02-01T19:56:08;28.40;;;12.48;;
35312;SDS011;21425;50.454;30.466;2023-02-01T19:58:34;19.33;;;10.55;;
35312;SDS011;21425;50.454;30.466;2023-02-01T20:00:59;19.58;;;8.65;;
35312;SDS011;21425;50.454;30.466;2023-02-01T20:03:25;17.88;;;9.68;;
35312;SDS011;21425;50.454;30.466;2023-02-01T20:05:55;29.67;;;10.02;;
35312;SDS011;21425;50.454;30.466;2023-02-01T20:08:22;24.90;;;10.25;;
35312;SDS011;21425;50.454;30.466;2023-02-01T20:10:48;24.50;;;11.80;;
35312;SDS011;21425;50.454;30.466;2023-02-01T20:13:14;22.50;;;9.65;;
35312;SDS011;21425;50.454;30.466;2023-02-01T20:15:39;14.32;;;6.75;;